createdAt,value
2022-08-23T00:00:13.413Z,24.20
2022-08-23T00:03:00.222Z,24.20
2022-08-23T00:05:41.237Z,24.10
2022-08-23T00:08:28.175Z,24.10
2022-08-23T00:11:08.210Z,24.10
2022-08-23T00:13:55.144Z,24.10
2022-08-23T00:16:36.270Z,24.10
2022-08-23T00:19:26.148Z,24.10
2022-08-23T00:22:21.136Z,24.00
2022-08-23T00:25:08.162Z,24.00
2022-08-23T00:27:48.278Z,24.10
2022-08-23T00:30:35.175Z,24.00
2022-08-23T00:33:15.245Z,24.00
2022-08-23T00:36:02.166Z,24.00
2022-08-23T00:38:42.211Z,24.00
2022-08-23T00:41:29.144Z,24.00
2022-08-23T00:44:28.702Z,24.00
2022-08-23T00:47:35.150Z,23.90
2022-08-23T00:50:41.217Z,23.90
2022-08-23T00:53:34.180Z,23.90
2022-08-23T00:56:17.684Z,23.90
2022-08-23T00:59:04.168Z,23.90
2022-08-23T01:01:44.537Z,23.80
2022-08-23T01:04:35.160Z,23.80
2022-08-23T01:07:29.261Z,23.80
2022-08-23T01:10:29.168Z,23.80
2022-08-23T01:13:17.205Z,23.80
2022-08-23T01:16:14.165Z,23.80
2022-08-23T01:18:55.232Z,23.80
2022-08-23T01:21:55.187Z,23.80
2022-08-23T01:25:06.000Z,23.80
2022-08-23T01:27:52.168Z,23.80
2022-08-23T01:30:41.165Z,23.70
2022-08-23T01:33:29.172Z,23.70
2022-08-23T01:36:20.220Z,23.70
2022-08-23T01:39:08.161Z,23.70
2022-08-23T01:41:55.326Z,23.60
2022-08-23T01:44:35.164Z,23.60
2022-08-23T01:47:24.158Z,23.60
2022-08-23T01:50:05.221Z,23.60
2022-08-23T01:52:52.157Z,23.60
2022-08-23T01:55:34.265Z,23.60
2022-08-23T01:58:21.157Z,23.60
2022-08-23T02:01:04.653Z,23.60
2022-08-23T02:04:00.757Z,23.60
2022-08-23T02:06:59.164Z,23.60
2022-08-23T02:09:39.742Z,23.60
2022-08-23T02:12:28.198Z,23.60
2022-08-23T02:15:18.841Z,23.60
2022-08-23T02:18:05.157Z,23.60
2022-08-23T02:20:55.251Z,23.60
2022-08-23T02:23:49.164Z,23.60
2022-08-23T02:26:36.249Z,23.60
2022-08-23T02:29:23.185Z,23.50
2022-08-23T02:32:04.151Z,23.50
2022-08-23T02:35:05.387Z,23.50
2022-08-23T02:37:53.030Z,23.50
2022-08-23T02:40:33.190Z,23.50
2022-08-23T02:43:13.857Z,23.50
2022-08-23T02:46:00.210Z,23.40
2022-08-23T02:48:40.748Z,23.40
2022-08-23T02:51:28.190Z,23.50
2022-08-23T02:54:15.233Z,23.50
2022-08-23T02:56:58.279Z,23.40
2022-08-23T02:59:38.866Z,23.50
2022-08-23T03:02:25.235Z,23.40
2022-08-23T03:05:14.207Z,23.50
2022-08-23T03:08:01.310Z,23.40
2022-08-23T03:10:59.169Z,23.40
2022-08-23T03:13:39.533Z,23.40
2022-08-23T03:16:27.184Z,23.50
2022-08-23T03:19:08.268Z,23.40
2022-08-23T03:21:55.206Z,23.40
2022-08-23T03:24:36.141Z,23.40
2022-08-23T03:27:23.186Z,23.40
2022-08-23T03:30:03.272Z,23.40
2022-08-23T03:32:51.184Z,23.40
2022-08-23T03:35:31.284Z,23.30
2022-08-23T03:38:19.172Z,23.40
2022-08-23T03:41:06.193Z,23.40
2022-08-23T03:43:47.730Z,23.30
2022-08-23T03:46:34.399Z,23.30
2022-08-23T03:49:14.688Z,23.30
2022-08-23T03:52:07.201Z,23.30
2022-08-23T03:54:47.682Z,23.30
2022-08-23T03:57:34.168Z,23.30
2022-08-23T04:00:20.173Z,23.30
2022-08-23T04:03:08.233Z,23.30
2022-08-23T04:06:11.206Z,23.30
2022-08-23T04:08:54.612Z,23.30
2022-08-23T04:11:41.197Z,23.30
2022-08-23T04:14:21.751Z,23.30
2022-08-23T04:17:08.197Z,23.30
2022-08-23T04:19:55.325Z,23.30
2022-08-23T04:22:42.201Z,23.30
2022-08-23T04:25:34.719Z,23.30
2022-08-23T04:28:22.184Z,23.30
2022-08-23T04:31:02.397Z,23.30
2022-08-23T04:33:52.514Z,23.30
2022-08-23T04:36:39.210Z,23.30
2022-08-23T04:39:26.202Z,23.30
2022-08-23T04:42:18.456Z,23.30
2022-08-23T04:45:05.192Z,23.30
2022-08-23T04:47:49.302Z,23.30
2022-08-23T04:50:36.203Z,23.30
2022-08-23T04:53:20.849Z,23.30
2022-08-23T04:56:24.179Z,23.30
2022-08-23T04:59:04.315Z,23.30
2022-08-23T05:01:52.190Z,23.40
2022-08-23T05:04:32.256Z,23.30
2022-08-23T05:07:19.194Z,23.30
2022-08-23T05:09:59.265Z,23.40
2022-08-23T05:12:46.198Z,23.40
2022-08-23T05:15:28.240Z,23.40
2022-08-23T05:18:19.225Z,23.40
2022-08-23T05:21:07.220Z,23.40
2022-08-23T05:23:55.308Z,23.40
2022-08-23T05:26:35.204Z,23.40
2022-08-23T05:29:29.232Z,23.40
2022-08-23T05:32:10.672Z,23.40
2022-08-23T05:34:57.206Z,23.50
2022-08-23T05:37:38.700Z,23.50
2022-08-23T05:40:25.270Z,23.50
2022-08-23T05:43:13.681Z,23.50
2022-08-23T05:46:00.202Z,23.50
2022-08-23T05:48:53.213Z,23.60
2022-08-23T05:51:39.265Z,23.60
2022-08-23T05:54:27.220Z,23.60
2022-08-23T05:57:27.293Z,23.60
2022-08-23T06:00:22.228Z,23.70
2022-08-23T06:03:19.258Z,23.70
2022-08-23T06:06:07.201Z,23.70
2022-08-23T06:08:50.318Z,23.70
2022-08-23T06:11:37.200Z,23.70
2022-08-23T06:14:17.356Z,23.80
2022-08-23T06:17:04.214Z,23.80
2022-08-23T06:19:44.249Z,23.80
2022-08-23T06:22:54.211Z,23.90
2022-08-23T06:25:45.426Z,23.90
2022-08-23T06:28:27.269Z,24.00
2022-08-23T06:31:07.863Z,24.00
2022-08-23T06:34:08.263Z,24.00
2022-08-23T06:37:14.539Z,24.00
2022-08-23T06:40:17.836Z,24.10
2022-08-23T06:43:04.717Z,24.20
2022-08-23T06:46:05.206Z,24.20
2022-08-23T06:48:54.281Z,24.20
2022-08-23T06:51:40.213Z,24.20
2022-08-23T06:54:39.665Z,24.30
2022-08-23T06:57:42.208Z,24.30
2022-08-23T07:00:34.752Z,24.40
2022-08-23T07:03:39.234Z,24.40
2022-08-23T07:06:48.729Z,24.50
2022-08-23T07:09:35.230Z,24.60
2022-08-23T07:12:22.262Z,24.60
2022-08-23T07:15:03.228Z,24.70
2022-08-23T07:17:50.215Z,24.80
2022-08-23T07:20:37.249Z,24.90
2022-08-23T07:23:32.270Z,25.00
2022-08-23T07:26:23.862Z,25.10
2022-08-23T07:29:04.260Z,25.30
2022-08-23T07:31:55.323Z,25.50
2022-08-23T07:34:36.222Z,25.80
2022-08-23T07:37:23.282Z,26.20
2022-08-23T07:40:04.301Z,26.60
2022-08-23T07:42:51.291Z,26.80
2022-08-23T07:45:31.216Z,27.10
2022-08-23T07:48:37.113Z,27.40
2022-08-23T07:51:23.335Z,27.70
2022-08-23T07:54:13.230Z,28.10
2022-08-23T07:57:08.368Z,28.30
2022-08-23T08:00:10.253Z,28.60
2022-08-23T08:02:59.322Z,28.80
2022-08-23T08:06:04.233Z,29.10
2022-08-23T08:08:52.276Z,29.30
2022-08-23T08:11:41.273Z,29.40
2022-08-23T08:14:25.245Z,29.60
2022-08-23T08:17:13.229Z,29.80
2022-08-23T08:20:21.289Z,29.90
2022-08-23T08:23:26.225Z,30.00
2022-08-23T08:26:35.284Z,30.10
2022-08-23T08:29:23.235Z,30.30
2022-08-23T08:32:03.298Z,30.40
2022-08-23T08:34:50.241Z,30.40
2022-08-23T08:37:30.972Z,30.40
2022-08-23T08:40:18.284Z,30.50
2022-08-23T08:43:37.304Z,30.40
2022-08-23T08:46:38.300Z,30.50
2022-08-23T08:49:47.258Z,30.70
2022-08-23T08:52:41.195Z,30.70
2022-08-23T08:55:42.251Z,30.60
2022-08-23T08:58:52.192Z,30.40
2022-08-23T09:01:43.293Z,29.90
2022-08-23T09:04:37.264Z,29.70
2022-08-23T09:07:33.344Z,29.40
2022-08-23T09:10:53.257Z,29.30
2022-08-23T09:13:53.386Z,29.20
2022-08-23T09:17:09.277Z,29.20
2022-08-23T09:20:00.245Z,29.20
2022-08-23T09:22:59.256Z,29.40
2022-08-23T09:25:47.275Z,29.50
2022-08-23T09:28:32.576Z,29.50
2022-08-23T09:31:59.270Z,29.60
2022-08-23T09:34:42.393Z,29.80
2022-08-23T09:37:31.264Z,30.00
2022-08-23T09:40:43.289Z,30.00
2022-08-23T09:43:34.273Z,30.00
2022-08-23T09:46:21.273Z,29.80
2022-08-23T09:49:28.582Z,29.70
2022-08-23T09:52:26.266Z,29.60
2022-08-23T09:55:43.248Z,29.70
2022-08-23T09:58:42.278Z,30.00
2022-08-23T10:01:38.204Z,30.20
2022-08-23T10:04:57.381Z,30.40
2022-08-23T10:07:51.764Z,30.60
2022-08-23T10:10:37.272Z,30.80
2022-08-23T10:13:25.252Z,31.00
2022-08-23T10:16:24.474Z,31.10
2022-08-23T10:19:41.265Z,31.20
2022-08-23T10:22:28.530Z,31.20
2022-08-23T10:25:44.273Z,31.30
2022-08-23T10:29:06.316Z,31.10
2022-08-23T10:32:09.275Z,31.20
2022-08-23T10:35:29.339Z,31.20
2022-08-23T10:38:38.280Z,31.10
2022-08-23T10:41:57.345Z,31.00
2022-08-23T10:45:08.297Z,30.70
2022-08-23T10:48:03.380Z,30.50
2022-08-23T10:51:06.270Z,30.40
2022-08-23T10:53:48.750Z,30.40
2022-08-23T10:56:35.281Z,30.70
2022-08-23T10:59:33.260Z,30.90
2022-08-23T11:02:36.073Z,31.00
2022-08-23T11:05:45.311Z,31.10
2022-08-23T11:08:47.378Z,31.20
2022-08-23T11:11:46.362Z,31.20
2022-08-23T11:14:48.284Z,31.20
2022-08-23T11:17:36.353Z,31.20
2022-08-23T11:20:57.282Z,31.30
2022-08-23T11:24:29.312Z,31.20
2022-08-23T11:27:31.291Z,31.00
2022-08-23T11:30:46.315Z,31.00
2022-08-23T11:34:05.776Z,31.00
2022-08-23T11:36:52.296Z,31.00
2022-08-23T11:40:06.501Z,31.00
2022-08-23T11:42:46.285Z,30.80
2022-08-23T11:45:47.102Z,30.70
2022-08-23T11:48:56.297Z,30.60
2022-08-23T11:52:21.398Z,30.60
2022-08-23T11:55:16.293Z,30.70
2022-08-23T11:58:18.468Z,30.80
2022-08-23T12:01:09.304Z,30.80
2022-08-23T12:04:17.286Z,30.80
2022-08-23T12:07:03.702Z,30.70
2022-08-23T12:09:57.293Z,30.60
2022-08-23T12:12:47.390Z,30.40
2022-08-23T12:15:54.309Z,30.40
2022-08-23T12:18:47.624Z,30.50
2022-08-23T12:21:57.326Z,30.40
2022-08-23T12:25:06.293Z,30.20
2022-08-23T12:27:59.300Z,30.20
2022-08-23T12:30:53.371Z,30.20
2022-08-23T12:34:17.197Z,30.20
2022-08-23T12:37:20.297Z,30.20
2022-08-23T12:40:10.366Z,30.20
2022-08-23T12:42:51.376Z,30.20
2022-08-23T12:45:51.357Z,30.20
2022-08-23T12:48:44.297Z,30.10
2022-08-23T12:51:24.877Z,30.00
2022-08-23T12:54:27.352Z,29.90
2022-08-23T12:57:33.391Z,29.80
2022-08-23T13:00:40.323Z,29.80
2022-08-23T13:03:40.305Z,29.60
2022-08-23T13:06:25.601Z,29.50
2022-08-23T13:09:20.301Z,29.30
2022-08-23T13:12:00.444Z,29.20
2022-08-23T13:14:59.305Z,29.20
2022-08-23T13:17:43.370Z,29.10
2022-08-23T13:20:31.320Z,29.10
2022-08-23T13:23:24.296Z,29.00
2022-08-23T13:26:28.822Z,29.00
2022-08-23T13:29:18.345Z,28.90
2022-08-23T13:32:11.333Z,28.90
2022-08-23T13:35:00.307Z,28.80
2022-08-23T13:37:53.510Z,28.70
2022-08-23T13:40:37.317Z,28.70
2022-08-23T13:43:52.307Z,28.60
2022-08-23T13:46:40.407Z,28.60
2022-08-23T13:49:26.340Z,28.50
2022-08-23T13:55:17.324Z,28.40
2022-08-23T13:58:05.650Z,28.40
2022-08-23T14:00:45.732Z,28.30
2022-08-23T14:03:41.434Z,28.30
2022-08-23T14:06:21.334Z,28.30
2022-08-23T14:09:08.369Z,28.20
2022-08-23T14:11:48.330Z,28.20
2022-08-23T14:14:38.409Z,28.20
2022-08-23T14:17:20.613Z,28.10
2022-08-23T14:23:12.127Z,28.00
2022-08-23T14:25:55.801Z,28.00
2022-08-23T14:28:44.573Z,28.00
2022-08-23T14:31:31.338Z,27.90
2022-08-23T14:34:18.332Z,27.90
2022-08-23T14:38:00.686Z,27.90
2022-08-23T14:40:06.408Z,27.80
2022-08-23T14:42:54.440Z,27.80
2022-08-23T14:45:34.329Z,27.80
2022-08-23T14:48:21.325Z,27.80
2022-08-23T14:51:09.337Z,27.70
2022-08-23T14:53:50.462Z,27.70
2022-08-23T14:56:37.379Z,27.70
2022-08-23T14:59:17.996Z,27.70
2022-08-23T15:02:06.320Z,27.60
2022-08-23T15:04:48.031Z,27.60
2022-08-23T15:07:35.394Z,27.60
2022-08-23T15:13:32.494Z,27.60
2022-08-23T15:16:16.574Z,27.50
2022-08-23T15:19:04.401Z,27.50
2022-08-23T15:21:44.893Z,27.60
2022-08-23T15:24:31.342Z,27.60
2022-08-23T15:27:18.467Z,27.60
2022-08-23T15:29:58.358Z,27.60
2022-08-23T15:32:52.520Z,27.50
2022-08-23T15:35:41.349Z,27.50
2022-08-23T15:38:32.097Z,27.50
2022-08-23T15:41:12.360Z,27.50
2022-08-23T15:43:59.347Z,27.50
2022-08-23T15:46:39.463Z,27.50
2022-08-23T15:49:27.382Z,27.50
2022-08-23T15:52:07.577Z,27.40
2022-08-23T15:54:54.353Z,27.40
2022-08-23T15:57:42.389Z,27.40
2022-08-23T16:00:30.371Z,27.40
2022-08-23T16:03:20.176Z,27.40
2022-08-23T16:06:08.393Z,27.40
2022-08-23T16:08:52.396Z,27.40
2022-08-23T16:11:39.410Z,27.40
2022-08-23T16:14:19.362Z,27.30
2022-08-23T16:17:00.754Z,27.30
2022-08-23T16:19:47.355Z,27.30
2022-08-23T16:22:34.419Z,27.30
2022-08-23T16:25:21.337Z,27.30
2022-08-23T16:28:08.353Z,27.20
2022-08-23T16:30:48.940Z,27.20
2022-08-23T16:33:35.398Z,27.20
2022-08-23T16:36:26.247Z,27.20
2022-08-23T16:39:10.350Z,27.20
2022-08-23T16:41:57.550Z,27.20
2022-08-23T16:44:39.344Z,27.20
2022-08-23T16:47:26.360Z,27.10
2022-08-23T16:50:06.418Z,27.10
2022-08-23T16:52:53.383Z,27.10
2022-08-23T16:55:33.423Z,27.10
2022-08-23T16:58:20.366Z,27.10
2022-08-23T17:01:00.481Z,27.10
2022-08-23T17:03:48.360Z,27.10
2022-08-23T17:06:28.417Z,27.10
2022-08-23T17:09:15.379Z,27.10
2022-08-23T17:11:58.488Z,27.10
2022-08-23T17:14:45.375Z,27.10
2022-08-23T17:17:25.414Z,27.00
2022-08-23T17:20:13.368Z,27.00
2022-08-23T17:22:55.108Z,27.10
2022-08-23T17:25:43.436Z,27.00
2022-08-23T17:28:24.474Z,27.00
2022-08-23T17:31:11.378Z,27.00
2022-08-23T17:33:58.376Z,27.00
2022-08-23T17:36:49.704Z,27.00
2022-08-23T17:39:39.374Z,27.00
2022-08-23T17:42:27.455Z,27.00
2022-08-23T17:45:07.382Z,27.00
2022-08-23T17:47:54.382Z,26.90
2022-08-23T17:50:34.665Z,27.00
2022-08-23T17:53:22.374Z,27.00
2022-08-23T17:56:02.444Z,27.00
2022-08-23T17:58:52.386Z,26.90
2022-08-23T18:01:32.507Z,26.90
2022-08-23T18:04:19.437Z,26.90
2022-08-23T18:06:59.482Z,26.90
2022-08-23T18:09:48.547Z,26.90
2022-08-23T18:12:28.441Z,26.90
2022-08-23T18:15:17.384Z,26.90
2022-08-23T18:17:58.286Z,26.90
2022-08-23T18:20:45.381Z,26.90
2022-08-23T18:23:32.401Z,26.80
2022-08-23T18:26:38.950Z,26.90
2022-08-23T18:29:23.373Z,26.90
2022-08-23T18:32:07.076Z,26.80
2022-08-23T18:34:53.379Z,26.80
2022-08-23T18:37:40.673Z,26.80
2022-08-23T18:40:21.406Z,26.80
2022-08-23T18:43:01.959Z,26.80
2022-08-23T18:45:48.449Z,26.80
2022-08-23T18:48:42.383Z,26.80
2022-08-23T18:51:37.388Z,26.80
2022-08-23T18:54:17.609Z,26.80
2022-08-23T18:57:04.405Z,26.80
2022-08-23T18:59:44.469Z,26.80
2022-08-23T19:02:31.377Z,26.70
2022-08-23T19:05:12.942Z,26.80
2022-08-23T19:07:59.372Z,26.70
2022-08-23T19:10:40.533Z,26.70
2022-08-23T19:13:27.388Z,26.70
2022-08-23T19:16:07.512Z,26.70
2022-08-23T19:18:56.385Z,26.70
2022-08-23T19:21:37.456Z,26.70
2022-08-23T19:24:31.403Z,26.70
2022-08-23T19:27:18.435Z,26.70
2022-08-23T19:29:58.401Z,26.70
2022-08-23T19:32:45.521Z,26.70
2022-08-23T19:35:25.381Z,26.70
2022-08-23T19:38:06.222Z,26.70
2022-08-23T19:40:53.404Z,26.70
2022-08-23T19:43:35.473Z,26.80
2022-08-23T19:46:24.418Z,26.80
2022-08-23T19:49:11.487Z,26.80
2022-08-23T19:51:51.394Z,26.80
2022-08-23T19:54:38.464Z,26.80
2022-08-23T19:57:18.449Z,26.80
2022-08-23T20:00:07.586Z,26.80
2022-08-23T20:02:48.520Z,26.80
2022-08-23T20:05:35.528Z,26.80
2022-08-23T20:08:15.589Z,26.80
2022-08-23T20:11:02.403Z,26.80
2022-08-23T20:13:49.406Z,26.80
2022-08-23T20:16:36.681Z,26.90
2022-08-23T20:19:19.602Z,26.80
2022-08-23T20:22:26.420Z,26.90
2022-08-23T20:25:15.816Z,26.80
2022-08-23T20:27:55.412Z,26.80
2022-08-23T20:30:43.452Z,26.90
2022-08-23T20:33:23.394Z,26.80
2022-08-23T20:36:10.406Z,26.80
2022-08-23T20:38:57.390Z,26.80
2022-08-23T20:41:39.678Z,26.90
2022-08-23T20:44:26.416Z,26.90
2022-08-23T20:47:06.963Z,26.80
2022-08-23T20:49:53.401Z,26.90
2022-08-23T20:52:40.414Z,26.90
2022-08-23T20:55:20.511Z,26.90
2022-08-23T20:58:07.406Z,26.90
2022-08-23T21:00:47.580Z,26.90
2022-08-23T21:03:36.407Z,26.90
2022-08-23T21:06:23.461Z,26.90
2022-08-23T21:09:12.418Z,26.90
2022-08-23T21:11:54.530Z,26.90
2022-08-23T21:14:41.415Z,26.90
2022-08-23T21:17:43.402Z,26.80
2022-08-23T21:20:34.427Z,26.80
2022-08-23T21:23:14.461Z,26.80
2022-08-23T21:26:03.411Z,26.80
2022-08-23T21:28:50.485Z,26.80
2022-08-23T21:31:31.579Z,26.70
2022-08-23T21:34:19.456Z,26.70
2022-08-23T21:37:06.408Z,26.70
2022-08-23T21:39:46.524Z,26.70
2022-08-23T21:42:33.421Z,26.60
2022-08-23T21:45:14.460Z,26.60
2022-08-23T21:48:02.453Z,26.60
2022-08-23T21:50:42.570Z,26.60
2022-08-23T21:53:29.434Z,26.60
2022-08-23T21:56:09.498Z,26.50
2022-08-23T21:58:56.454Z,26.50
2022-08-23T22:01:38.680Z,26.50
2022-08-23T22:04:25.415Z,26.50
2022-08-23T22:07:05.489Z,26.50
2022-08-23T22:09:53.437Z,26.50
2022-08-23T22:12:40.445Z,26.40
2022-08-23T22:15:27.567Z,26.50
2022-08-23T22:18:09.448Z,26.40
2022-08-23T22:20:50.077Z,26.40
2022-08-23T22:23:36.438Z,26.40
2022-08-23T22:26:23.436Z,26.30
2022-08-23T22:29:03.493Z,26.30
2022-08-23T22:31:50.449Z,26.30
2022-08-23T22:34:37.424Z,26.30
2022-08-23T22:37:25.243Z,26.20
2022-08-23T22:40:04.477Z,26.30
2022-08-23T22:42:51.475Z,26.20
2022-08-23T22:45:31.429Z,26.20
2022-08-23T22:48:18.440Z,26.20
2022-08-23T22:51:09.550Z,26.20
2022-08-23T22:53:59.465Z,26.10
2022-08-23T22:56:53.416Z,26.10
2022-08-23T22:59:40.584Z,26.10
2022-08-23T23:02:21.423Z,26.10
2022-08-23T23:05:08.445Z,26.00
2022-08-23T23:08:07.424Z,26.00
2022-08-23T23:10:54.441Z,26.00
2022-08-23T23:13:43.447Z,26.00
2022-08-23T23:16:32.530Z,25.90
2022-08-23T23:19:31.449Z,25.90
2022-08-23T23:22:18.488Z,25.90
2022-08-23T23:25:08.445Z,25.80
2022-08-23T23:27:55.441Z,25.80
2022-08-23T23:30:39.585Z,25.80
2022-08-23T23:33:27.448Z,25.80
2022-08-23T23:36:16.583Z,25.80
2022-08-23T23:38:58.469Z,25.70
2022-08-23T23:41:39.263Z,25.70
2022-08-23T23:44:31.491Z,25.70
2022-08-23T23:47:25.441Z,25.70
2022-08-23T23:50:13.502Z,25.60
2022-08-23T23:52:53.442Z,25.70
2022-08-23T23:55:41.440Z,25.60
2022-08-23T23:58:21.509Z,25.60
